sensor_id;sensor_type;location;lat;lon;timestamp;P1;durP1;ratioP1;P2;durP2;ratioP2
8857;SDS011;4465;50.904;4.696;2023-07-29T00:01:22;3.40;;;1.45;;
8857;SDS011;4465;50.904;4.696;2023-07-29T00:03:47;2.83;;;1.50;;
8857;SDS011;4465;50.904;4.696;2023-07-29T00:06:13;2.40;;;1.50;;
8857;SDS011;4465;50.904;4.696;2023-07-29T00:08:39;2.10;;;1.33;;
8857;SDS011;4465;50.904;4.696;2023-07-29T00:11:07;2.53;;;1.48;;
8857;SDS011;4465;50.904;4.696;2023-07-29T00:13:33;4.53;;;1.65;;
8857;SDS011;4465;50.904;4.696;2023-07-29T00:15:59;3.35;;;1.42;;
8857;SDS011;4465;50.904;4.696;2023-07-29T00:18:25;2.08;;;1.63;;
8857;SDS011;4465;50.904;4.696;2023-07-29T00:20:51;2.35;;;1.60;;
8857;SDS011;4465;50.904;4.696;2023-07-29T00:23:17;3.53;;;1.50;;
8857;SDS011;4465;50.904;4.696;2023-07-29T00:25:46;2.17;;;1.52;;
8857;SDS011;4465;50.904;4.696;2023-07-29T00:28:14;5.05;;;1.40;;
8857;SDS011;4465;50.904;4.696;2023-07-29T00:30:43;2.15;;;1.30;;
8857;SDS011;4465;50.904;4.696;2023-07-29T00:33:08;6.70;;;1.75;;
8857;SDS011;4465;50.904;4.696;2023-07-29T00:35:34;4.30;;;1.30;;
8857;SDS011;4465;50.904;4.696;2023-07-29T00:38:05;2.70;;;1.60;;
8857;SDS011;4465;50.904;4.696;2023-07-29T00:40:31;3.50;;;1.30;;
8857;SDS011;4465;50.904;4.696;2023-07-29T00:43:03;3.25;;;1.70;;
8857;SDS011;4465;50.904;4.696;2023-07-29T00:45:30;2.40;;;1.25;;
8857;SDS011;4465;50.904;4.696;2023-07-29T00:50:23;1.60;;;1.10;;
8857;SDS011;4465;50.904;4.696;2023-07-29T00:52:49;3.13;;;1.30;;
8857;SDS011;4465;50.904;4.696;2023-07-29T00:55:15;3.28;;;1.13;;
8857;SDS011;4465;50.904;4.696;2023-07-29T00:57:44;4.22;;;1.50;;
8857;SDS011;4465;50.904;4.696;2023-07-29T01:00:13;1.95;;;1.33;;
8857;SDS011;4465;50.904;4.696;2023-07-29T01:02:42;2.35;;;1.55;;
8857;SDS011;4465;50.904;4.696;2023-07-29T01:05:08;4.13;;;1.42;;
8857;SDS011;4465;50.904;4.696;2023-07-29T01:07:53;4.22;;;1.00;;
8857;SDS011;4465;50.904;4.696;2023-07-29T01:13:44;2.30;;;1.35;;
8857;SDS011;4465;50.904;4.696;2023-07-29T01:16:17;2.38;;;1.42;;
8857;SDS011;4465;50.904;4.696;2023-07-29T01:18:49;2.05;;;1.35;;
8857;SDS011;4465;50.904;4.696;2023-07-29T01:21:17;2.10;;;1.33;;
8857;SDS011;4465;50.904;4.696;2023-07-29T01:23:45;2.72;;;1.15;;
8857;SDS011;4465;50.904;4.696;2023-07-29T01:26:11;1.70;;;1.25;;
8857;SDS011;4465;50.904;4.696;2023-07-29T01:28:39;2.13;;;1.35;;
8857;SDS011;4465;50.904;4.696;2023-07-29T01:33:44;2.50;;;1.00;;
8857;SDS011;4465;50.904;4.696;2023-07-29T01:38:48;2.95;;;1.42;;
8857;SDS011;4465;50.904;4.696;2023-07-29T01:41:17;2.80;;;1.20;;
8857;SDS011;4465;50.904;4.696;2023-07-29T01:43:43;2.90;;;1.45;;
8857;SDS011;4465;50.904;4.696;2023-07-29T01:46:12;4.22;;;1.30;;
8857;SDS011;4465;50.904;4.696;2023-07-29T01:48:41;2.65;;;1.35;;
8857;SDS011;4465;50.904;4.696;2023-07-29T01:51:11;7.90;;;1.40;;
8857;SDS011;4465;50.904;4.696;2023-07-29T01:53:38;3.47;;;1.00;;
8857;SDS011;4465;50.904;4.696;2023-07-29T01:56:04;2.47;;;1.00;;
8857;SDS011;4465;50.904;4.696;2023-07-29T02:00:57;2.15;;;1.10;;
8857;SDS011;4465;50.904;4.696;2023-07-29T02:03:23;2.72;;;1.17;;
8857;SDS011;4465;50.904;4.696;2023-07-29T02:05:51;3.88;;;1.40;;
8857;SDS011;4465;50.904;4.696;2023-07-29T02:08:17;3.83;;;1.20;;
8857;SDS011;4465;50.904;4.696;2023-07-29T02:10:43;2.28;;;1.00;;
8857;SDS011;4465;50.904;4.696;2023-07-29T02:13:12;2.45;;;1.40;;
8857;SDS011;4465;50.904;4.696;2023-07-29T02:15:38;3.67;;;1.20;;
8857;SDS011;4465;50.904;4.696;2023-07-29T02:18:04;3.20;;;1.30;;
8857;SDS011;4465;50.904;4.696;2023-07-29T02:20:31;1.45;;;0.95;;
8857;SDS011;4465;50.904;4.696;2023-07-29T02:22:57;4.60;;;1.40;;
8857;SDS011;4465;50.904;4.696;2023-07-29T02:25:23;3.78;;;1.42;;
8857;SDS011;4465;50.904;4.696;2023-07-29T02:27:49;2.70;;;1.15;;
8857;SDS011;4465;50.904;4.696;2023-07-29T02:30:18;2.70;;;1.33;;
8857;SDS011;4465;50.904;4.696;2023-07-29T02:32:44;4.45;;;1.33;;
8857;SDS011;4465;50.904;4.696;2023-07-29T02:35:11;4.32;;;1.50;;
8857;SDS011;4465;50.904;4.696;2023-07-29T02:37:37;3.85;;;1.38;;
8857;SDS011;4465;50.904;4.696;2023-07-29T02:40:03;6.07;;;1.50;;
8857;SDS011;4465;50.904;4.696;2023-07-29T02:42:31;2.35;;;1.55;;
8857;SDS011;4465;50.904;4.696;2023-07-29T02:44:59;3.30;;;1.48;;
8857;SDS011;4465;50.904;4.696;2023-07-29T02:47:25;2.42;;;1.20;;
8857;SDS011;4465;50.904;4.696;2023-07-29T02:49:51;3.72;;;1.50;;
8857;SDS011;4465;50.904;4.696;2023-07-29T02:52:16;2.53;;;1.15;;
8857;SDS011;4465;50.904;4.696;2023-07-29T02:54:42;2.28;;;1.25;;
8857;SDS011;4465;50.904;4.696;2023-07-29T02:57:08;1.77;;;1.40;;
8857;SDS011;4465;50.904;4.696;2023-07-29T02:59:34;2.28;;;1.38;;
8857;SDS011;4465;50.904;4.696;2023-07-29T03:02:02;2.60;;;1.30;;
8857;SDS011;4465;50.904;4.696;2023-07-29T03:04:31;3.50;;;1.48;;
8857;SDS011;4465;50.904;4.696;2023-07-29T03:06:57;5.63;;;1.33;;
8857;SDS011;4465;50.904;4.696;2023-07-29T03:11:52;2.77;;;1.20;;
8857;SDS011;4465;50.904;4.696;2023-07-29T03:14:20;2.38;;;1.67;;
8857;SDS011;4465;50.904;4.696;2023-07-29T03:16:49;2.97;;;1.30;;
8857;SDS011;4465;50.904;4.696;2023-07-29T03:19:20;3.17;;;1.40;;
8857;SDS011;4465;50.904;4.696;2023-07-29T03:21:45;2.92;;;1.55;;
8857;SDS011;4465;50.904;4.696;2023-07-29T03:24:14;6.53;;;1.52;;
8857;SDS011;4465;50.904;4.696;2023-07-29T03:26:42;1.80;;;1.33;;
8857;SDS011;4465;50.904;4.696;2023-07-29T03:29:08;2.95;;;1.40;;
8857;SDS011;4465;50.904;4.696;2023-07-29T03:31:34;2.65;;;1.63;;
8857;SDS011;4465;50.904;4.696;2023-07-29T03:34:00;4.57;;;1.45;;
8857;SDS011;4465;50.904;4.696;2023-07-29T03:36:26;2.40;;;1.48;;
8857;SDS011;4465;50.904;4.696;2023-07-29T03:38:54;2.35;;;1.42;;
8857;SDS011;4465;50.904;4.696;2023-07-29T03:41:22;3.47;;;1.83;;
8857;SDS011;4465;50.904;4.696;2023-07-29T03:43:48;2.70;;;1.77;;
8857;SDS011;4465;50.904;4.696;2023-07-29T03:46:14;4.32;;;1.50;;
8857;SDS011;4465;50.904;4.696;2023-07-29T03:48:47;2.78;;;1.50;;
8857;SDS011;4465;50.904;4.696;2023-07-29T03:51:13;4.00;;;1.48;;
8857;SDS011;4465;50.904;4.696;2023-07-29T03:53:41;3.47;;;1.40;;
8857;SDS011;4465;50.904;4.696;2023-07-29T03:56:07;4.35;;;1.80;;
8857;SDS011;4465;50.904;4.696;2023-07-29T03:58:33;8.27;;;1.63;;
8857;SDS011;4465;50.904;4.696;2023-07-29T04:00:59;2.00;;;1.30;;
8857;SDS011;4465;50.904;4.696;2023-07-29T04:03:25;5.80;;;1.92;;
8857;SDS011;4465;50.904;4.696;2023-07-29T04:05:51;3.00;;;1.30;;
8857;SDS011;4465;50.904;4.696;2023-07-29T04:08:19;3.90;;;1.60;;
8857;SDS011;4465;50.904;4.696;2023-07-29T04:10:48;3.20;;;1.70;;
8857;SDS011;4465;50.904;4.696;2023-07-29T04:13:14;2.83;;;1.65;;
8857;SDS011;4465;50.904;4.696;2023-07-29T04:15:40;3.40;;;1.45;;
8857;SDS011;4465;50.904;4.696;2023-07-29T04:18:08;3.30;;;1.75;;
8857;SDS011;4465;50.904;4.696;2023-07-29T04:20:34;2.90;;;1.67;;
8857;SDS011;4465;50.904;4.696;2023-07-29T04:23:00;3.28;;;1.98;;
8857;SDS011;4465;50.904;4.696;2023-07-29T04:25:27;3.72;;;1.95;;
8857;SDS011;4465;50.904;4.696;2023-07-29T04:27:53;8.50;;;1.88;;
8857;SDS011;4465;50.904;4.696;2023-07-29T04:30:19;4.15;;;1.80;;
8857;SDS011;4465;50.904;4.696;2023-07-29T04:32:47;2.20;;;1.35;;
8857;SDS011;4465;50.904;4.696;2023-07-29T04:35:13;4.28;;;1.70;;
8857;SDS011;4465;50.904;4.696;2023-07-29T04:37:40;3.67;;;1.58;;
8857;SDS011;4465;50.904;4.696;2023-07-29T04:40:06;5.88;;;1.90;;
8857;SDS011;4465;50.904;4.696;2023-07-29T04:42:33;3.72;;;1.50;;
8857;SDS011;4465;50.904;4.696;2023-07-29T04:44:58;5.20;;;1.70;;
8857;SDS011;4465;50.904;4.696;2023-07-29T04:47:24;4.88;;;1.48;;
8857;SDS011;4465;50.904;4.696;2023-07-29T04:49:50;4.38;;;1.60;;
8857;SDS011;4465;50.904;4.696;2023-07-29T04:52:16;3.25;;;1.73;;
8857;SDS011;4465;50.904;4.696;2023-07-29T04:54:44;7.35;;;1.60;;
8857;SDS011;4465;50.904;4.696;2023-07-29T04:57:13;2.28;;;1.65;;
8857;SDS011;4465;50.904;4.696;2023-07-29T04:59:39;4.50;;;1.67;;
8857;SDS011;4465;50.904;4.696;2023-07-29T05:02:08;2.50;;;1.60;;
8857;SDS011;4465;50.904;4.696;2023-07-29T05:04:34;1.67;;;1.17;;
8857;SDS011;4465;50.904;4.696;2023-07-29T05:07:00;2.95;;;1.35;;
8857;SDS011;4465;50.904;4.696;2023-07-29T05:09:26;4.22;;;1.60;;
8857;SDS011;4465;50.904;4.696;2023-07-29T05:11:52;3.92;;;1.55;;
8857;SDS011;4465;50.904;4.696;2023-07-29T05:14:18;3.13;;;1.70;;
8857;SDS011;4465;50.904;4.696;2023-07-29T05:16:46;5.15;;;1.70;;
8857;SDS011;4465;50.904;4.696;2023-07-29T05:19:13;3.45;;;1.80;;
8857;SDS011;4465;50.904;4.696;2023-07-29T05:21:39;2.60;;;1.55;;
8857;SDS011;4465;50.904;4.696;2023-07-29T05:24:05;2.97;;;1.37;;
8857;SDS011;4465;50.904;4.696;2023-07-29T05:26:31;1.83;;;1.20;;
8857;SDS011;4465;50.904;4.696;2023-07-29T05:28:57;5.43;;;1.50;;
8857;SDS011;4465;50.904;4.696;2023-07-29T05:31:25;4.68;;;1.63;;
8857;SDS011;4465;50.904;4.696;2023-07-29T05:33:51;3.13;;;1.40;;
8857;SDS011;4465;50.904;4.696;2023-07-29T05:36:17;3.60;;;1.65;;
8857;SDS011;4465;50.904;4.696;2023-07-29T05:38:43;3.75;;;1.55;;
8857;SDS011;4465;50.904;4.696;2023-07-29T05:41:09;2.80;;;1.42;;
8857;SDS011;4465;50.904;4.696;2023-07-29T05:43:37;2.50;;;1.42;;
8857;SDS011;4465;50.904;4.696;2023-07-29T05:46:03;6.07;;;1.50;;
8857;SDS011;4465;50.904;4.696;2023-07-29T05:48:29;4.13;;;1.40;;
8857;SDS011;4465;50.904;4.696;2023-07-29T05:50:55;2.92;;;1.60;;
8857;SDS011;4465;50.904;4.696;2023-07-29T05:53:23;3.75;;;1.35;;
8857;SDS011;4465;50.904;4.696;2023-07-29T05:55:51;2.70;;;1.08;;
8857;SDS011;4465;50.904;4.696;2023-07-29T05:58:17;2.72;;;1.42;;
8857;SDS011;4465;50.904;4.696;2023-07-29T06:00:43;2.58;;;1.30;;
8857;SDS011;4465;50.904;4.696;2023-07-29T06:03:09;7.93;;;1.52;;
8857;SDS011;4465;50.904;4.696;2023-07-29T06:05:37;2.65;;;1.42;;
8857;SDS011;4465;50.904;4.696;2023-07-29T06:08:03;2.05;;;1.10;;
8857;SDS011;4465;50.904;4.696;2023-07-29T06:10:29;5.93;;;1.58;;
8857;SDS011;4465;50.904;4.696;2023-07-29T06:12:57;2.67;;;1.30;;
8857;SDS011;4465;50.904;4.696;2023-07-29T06:15:23;2.33;;;1.25;;
8857;SDS011;4465;50.904;4.696;2023-07-29T06:17:49;2.55;;;1.23;;
8857;SDS011;4465;50.904;4.696;2023-07-29T06:20:15;3.75;;;1.90;;
8857;SDS011;4465;50.904;4.696;2023-07-29T06:22:44;3.03;;;1.38;;
8857;SDS011;4465;50.904;4.696;2023-07-29T06:25:10;3.65;;;1.63;;
8857;SDS011;4465;50.904;4.696;2023-07-29T06:27:36;2.20;;;1.40;;
8857;SDS011;4465;50.904;4.696;2023-07-29T06:30:02;6.15;;;2.13;;
8857;SDS011;4465;50.904;4.696;2023-07-29T06:32:28;3.83;;;2.00;;
8857;SDS011;4465;50.904;4.696;2023-07-29T06:34:56;4.05;;;1.33;;
8857;SDS011;4465;50.904;4.696;2023-07-29T06:37:22;2.90;;;1.20;;
8857;SDS011;4465;50.904;4.696;2023-07-29T06:39:50;2.15;;;1.45;;
8857;SDS011;4465;50.904;4.696;2023-07-29T06:42:16;4.93;;;1.30;;
8857;SDS011;4465;50.904;4.696;2023-07-29T06:44:44;7.43;;;1.27;;
8857;SDS011;4465;50.904;4.696;2023-07-29T06:47:13;1.98;;;1.20;;
8857;SDS011;4465;50.904;4.696;2023-07-29T06:49:43;2.17;;;1.10;;
8857;SDS011;4465;50.904;4.696;2023-07-29T06:52:11;2.05;;;1.02;;
8857;SDS011;4465;50.904;4.696;2023-07-29T06:54:36;3.55;;;1.38;;
8857;SDS011;4465;50.904;4.696;2023-07-29T06:57:05;5.70;;;1.67;;
8857;SDS011;4465;50.904;4.696;2023-07-29T06:59:31;1.98;;;1.17;;
8857;SDS011;4465;50.904;4.696;2023-07-29T07:01:57;3.67;;;1.50;;
8857;SDS011;4465;50.904;4.696;2023-07-29T07:04:23;3.17;;;1.10;;
8857;SDS011;4465;50.904;4.696;2023-07-29T07:06:48;1.92;;;1.00;;
8857;SDS011;4465;50.904;4.696;2023-07-29T07:09:18;3.20;;;1.30;;
8857;SDS011;4465;50.904;4.696;2023-07-29T07:11:45;2.00;;;1.15;;
8857;SDS011;4465;50.904;4.696;2023-07-29T07:14:12;4.80;;;1.60;;
8857;SDS011;4465;50.904;4.696;2023-07-29T07:16:38;1.63;;;0.95;;
8857;SDS011;4465;50.904;4.696;2023-07-29T07:19:04;1.75;;;1.00;;
8857;SDS011;4465;50.904;4.696;2023-07-29T07:21:30;3.13;;;1.30;;
8857;SDS011;4465;50.904;4.696;2023-07-29T07:23:58;1.50;;;1.00;;
8857;SDS011;4465;50.904;4.696;2023-07-29T07:26:23;1.63;;;0.82;;
8857;SDS011;4465;50.904;4.696;2023-07-29T07:28:49;6.20;;;1.67;;
8857;SDS011;4465;50.904;4.696;2023-07-29T07:31:19;2.55;;;1.00;;
8857;SDS011;4465;50.904;4.696;2023-07-29T07:33:45;1.70;;;0.90;;
8857;SDS011;4465;50.904;4.696;2023-07-29T07:36:11;1.20;;;0.90;;
8857;SDS011;4465;50.904;4.696;2023-07-29T07:38:41;2.28;;;1.15;;
8857;SDS011;4465;50.904;4.696;2023-07-29T07:41:07;3.38;;;1.00;;
8857;SDS011;4465;50.904;4.696;2023-07-29T07:43:32;2.03;;;0.80;;
8857;SDS011;4465;50.904;4.696;2023-07-29T07:45:59;1.80;;;0.98;;
8857;SDS011;4465;50.904;4.696;2023-07-29T07:50:54;4.88;;;0.95;;
8857;SDS011;4465;50.904;4.696;2023-07-29T07:53:20;2.15;;;1.00;;
8857;SDS011;4465;50.904;4.696;2023-07-29T07:55:46;2.22;;;0.95;;
8857;SDS011;4465;50.904;4.696;2023-07-29T07:58:12;4.65;;;0.90;;
8857;SDS011;4465;50.904;4.696;2023-07-29T08:00:40;3.28;;;1.23;;
8857;SDS011;4465;50.904;4.696;2023-07-29T08:03:06;3.53;;;0.90;;
8857;SDS011;4465;50.904;4.696;2023-07-29T08:05:34;1.88;;;1.00;;
8857;SDS011;4465;50.904;4.696;2023-07-29T08:08:02;2.10;;;0.93;;
8857;SDS011;4465;50.904;4.696;2023-07-29T08:10:28;3.75;;;1.15;;
8857;SDS011;4465;50.904;4.696;2023-07-29T08:12:59;2.25;;;1.20;;
8857;SDS011;4465;50.904;4.696;2023-07-29T08:15:25;1.42;;;0.90;;
8857;SDS011;4465;50.904;4.696;2023-07-29T08:17:51;6.40;;;1.02;;
8857;SDS011;4465;50.904;4.696;2023-07-29T08:20:16;2.15;;;1.08;;
8857;SDS011;4465;50.904;4.696;2023-07-29T08:22:42;2.08;;;1.05;;
8857;SDS011;4465;50.904;4.696;2023-07-29T08:25:08;1.77;;;1.02;;
8857;SDS011;4465;50.904;4.696;2023-07-29T08:27:34;1.48;;;0.95;;
8857;SDS011;4465;50.904;4.696;2023-07-29T08:30:00;0.88;;;0.77;;
8857;SDS011;4465;50.904;4.696;2023-07-29T08:32:28;1.13;;;0.80;;
8857;SDS011;4465;50.904;4.696;2023-07-29T08:34:54;1.20;;;0.93;;
8857;SDS011;4465;50.904;4.696;2023-07-29T08:37:20;1.67;;;0.90;;
8857;SDS011;4465;50.904;4.696;2023-07-29T08:39:51;2.95;;;1.23;;
8857;SDS011;4465;50.904;4.696;2023-07-29T08:42:19;1.98;;;0.95;;
8857;SDS011;4465;50.904;4.696;2023-07-29T08:44:49;3.28;;;1.10;;
8857;SDS011;4465;50.904;4.696;2023-07-29T08:47:19;2.50;;;0.90;;
8857;SDS011;4465;50.904;4.696;2023-07-29T08:49:46;1.80;;;1.00;;
8857;SDS011;4465;50.904;4.696;2023-07-29T08:52:14;2.85;;;1.02;;
8857;SDS011;4465;50.904;4.696;2023-07-29T08:54:43;2.83;;;1.23;;
8857;SDS011;4465;50.904;4.696;2023-07-29T08:57:10;1.38;;;0.88;;
8857;SDS011;4465;50.904;4.696;2023-07-29T08:59:36;2.70;;;1.08;;
8857;SDS011;4465;50.904;4.696;2023-07-29T09:02:03;2.30;;;1.20;;
8857;SDS011;4465;50.904;4.696;2023-07-29T09:04:29;1.25;;;0.90;;
8857;SDS011;4465;50.904;4.696;2023-07-29T09:06:55;1.38;;;1.00;;
8857;SDS011;4465;50.904;4.696;2023-07-29T09:09:25;2.10;;;1.25;;
8857;SDS011;4465;50.904;4.696;2023-07-29T09:11:51;1.55;;;1.15;;
8857;SDS011;4465;50.904;4.696;2023-07-29T09:14:19;1.83;;;1.20;;
8857;SDS011;4465;50.904;4.696;2023-07-29T09:16:45;2.13;;;1.30;;
8857;SDS011;4465;50.904;4.696;2023-07-29T09:19:16;3.75;;;1.10;;
8857;SDS011;4465;50.904;4.696;2023-07-29T09:21:42;2.00;;;1.27;;
8857;SDS011;4465;50.904;4.696;2023-07-29T09:24:12;2.05;;;1.33;;
8857;SDS011;4465;50.904;4.696;2023-07-29T09:26:48;2.35;;;1.33;;
8857;SDS011;4465;50.904;4.696;2023-07-29T09:29:22;1.75;;;0.90;;
8857;SDS011;4465;50.904;4.696;2023-07-29T09:31:49;3.17;;;1.30;;
8857;SDS011;4465;50.904;4.696;2023-07-29T09:34:15;1.58;;;1.15;;
8857;SDS011;4465;50.904;4.696;2023-07-29T09:39:12;1.50;;;1.10;;
8857;SDS011;4465;50.904;4.696;2023-07-29T09:41:41;7.75;;;1.40;;
8857;SDS011;4465;50.904;4.696;2023-07-29T09:44:12;2.55;;;1.40;;
8857;SDS011;4465;50.904;4.696;2023-07-29T09:46:38;2.67;;;1.25;;
8857;SDS011;4465;50.904;4.696;2023-07-29T09:49:04;2.22;;;1.00;;
8857;SDS011;4465;50.904;4.696;2023-07-29T09:51:31;2.33;;;1.45;;
8857;SDS011;4465;50.904;4.696;2023-07-29T09:54:02;2.58;;;1.40;;
8857;SDS011;4465;50.904;4.696;2023-07-29T09:56:29;2.30;;;1.40;;
8857;SDS011;4465;50.904;4.696;2023-07-29T09:58:59;2.53;;;1.42;;
8857;SDS011;4465;50.904;4.696;2023-07-29T10:01:26;1.80;;;1.15;;
8857;SDS011;4465;50.904;4.696;2023-07-29T10:03:55;1.92;;;1.30;;
8857;SDS011;4465;50.904;4.696;2023-07-29T10:06:22;4.22;;;1.30;;
8857;SDS011;4465;50.904;4.696;2023-07-29T10:08:51;2.38;;;1.27;;
8857;SDS011;4465;50.904;4.696;2023-07-29T10:11:17;1.60;;;1.10;;
8857;SDS011;4465;50.904;4.696;2023-07-29T10:13:45;1.90;;;1.27;;
8857;SDS011;4465;50.904;4.696;2023-07-29T10:16:14;1.80;;;1.30;;
8857;SDS011;4465;50.904;4.696;2023-07-29T10:18:40;4.57;;;1.50;;
8857;SDS011;4465;50.904;4.696;2023-07-29T10:21:07;1.98;;;1.30;;
8857;SDS011;4465;50.904;4.696;2023-07-29T10:23:34;4.28;;;1.17;;
8857;SDS011;4465;50.904;4.696;2023-07-29T10:26:05;3.22;;;1.60;;
8857;SDS011;4465;50.904;4.696;2023-07-29T10:28:35;3.00;;;1.38;;
8857;SDS011;4465;50.904;4.696;2023-07-29T10:31:11;2.03;;;1.30;;
8857;SDS011;4465;50.904;4.696;2023-07-29T10:33:41;3.28;;;1.40;;
8857;SDS011;4465;50.904;4.696;2023-07-29T10:36:09;2.33;;;1.30;;
8857;SDS011;4465;50.904;4.696;2023-07-29T10:38:38;3.00;;;1.23;;
8857;SDS011;4465;50.904;4.696;2023-07-29T10:41:04;2.10;;;1.50;;
8857;SDS011;4465;50.904;4.696;2023-07-29T10:43:33;4.80;;;1.30;;
8857;SDS011;4465;50.904;4.696;2023-07-29T10:46:18;2.45;;;1.38;;
8857;SDS011;4465;50.904;4.696;2023-07-29T10:53:58;4.30;;;1.58;;
8857;SDS011;4465;50.904;4.696;2023-07-29T10:56:41;4.88;;;1.50;;
8857;SDS011;4465;50.904;4.696;2023-07-29T11:01:40;2.63;;;1.48;;
8857;SDS011;4465;50.904;4.696;2023-07-29T11:15:24;4.28;;;1.40;;
8857;SDS011;4465;50.904;4.696;2023-07-29T11:17:56;2.88;;;1.42;;
8857;SDS011;4465;50.904;4.696;2023-07-29T11:20:26;2.75;;;1.52;;
8857;SDS011;4465;50.904;4.696;2023-07-29T11:22:53;4.05;;;1.85;;
8857;SDS011;4465;50.904;4.696;2023-07-29T11:25:21;2.17;;;1.63;;
8857;SDS011;4465;50.904;4.696;2023-07-29T11:27:48;3.72;;;1.75;;
8857;SDS011;4465;50.904;4.696;2023-07-29T11:30:16;4.43;;;1.90;;
8857;SDS011;4465;50.904;4.696;2023-07-29T11:32:43;10.00;;;2.67;;
8857;SDS011;4465;50.904;4.696;2023-07-29T11:35:13;2.90;;;1.80;;
8857;SDS011;4465;50.904;4.696;2023-07-29T11:37:42;3.38;;;1.95;;
8857;SDS011;4465;50.904;4.696;2023-07-29T11:40:13;3.10;;;1.80;;
8857;SDS011;4465;50.904;4.696;2023-07-29T11:42:45;2.42;;;1.90;;
8857;SDS011;4465;50.904;4.696;2023-07-29T11:45:12;4.25;;;1.80;;
8857;SDS011;4465;50.904;4.696;2023-07-29T11:47:39;2.78;;;1.67;;
8857;SDS011;4465;50.904;4.696;2023-07-29T11:50:09;4.82;;;1.80;;
8857;SDS011;4465;50.904;4.696;2023-07-29T11:52:44;3.28;;;2.10;;
8857;SDS011;4465;50.904;4.696;2023-07-29T11:55:12;4.85;;;1.70;;
8857;SDS011;4465;50.904;4.696;2023-07-29T11:57:39;1.75;;;1.33;;
8857;SDS011;4465;50.904;4.696;2023-07-29T12:00:07;2.00;;;1.50;;
8857;SDS011;4465;50.904;4.696;2023-07-29T12:02:36;2.13;;;1.58;;
8857;SDS011;4465;50.904;4.696;2023-07-29T12:05:04;1.98;;;1.42;;
8857;SDS011;4465;50.904;4.696;2023-07-29T12:09:57;3.78;;;1.70;;
8857;SDS011;4465;50.904;4.696;2023-07-29T12:12:23;3.08;;;1.70;;
8857;SDS011;4465;50.904;4.696;2023-07-29T12:14:49;2.25;;;1.40;;
8857;SDS011;4465;50.904;4.696;2023-07-29T12:17:15;2.13;;;1.40;;
8857;SDS011;4465;50.904;4.696;2023-07-29T12:19:41;1.77;;;1.40;;
8857;SDS011;4465;50.904;4.696;2023-07-29T12:22:08;1.83;;;1.40;;
8857;SDS011;4465;50.904;4.696;2023-07-29T12:24:36;3.17;;;1.60;;
8857;SDS011;4465;50.904;4.696;2023-07-29T12:27:10;5.13;;;1.50;;
8857;SDS011;4465;50.904;4.696;2023-07-29T12:29:43;2.38;;;1.50;;
8857;SDS011;4465;50.904;4.696;2023-07-29T12:32:11;2.65;;;1.27;;
8857;SDS011;4465;50.904;4.696;2023-07-29T12:34:38;1.87;;;1.57;;
8857;SDS011;4465;50.904;4.696;2023-07-29T12:37:05;2.90;;;1.80;;
8857;SDS011;4465;50.904;4.696;2023-07-29T12:39:34;3.42;;;1.45;;
8857;SDS011;4465;50.904;4.696;2023-07-29T12:42:03;2.35;;;1.73;;
8857;SDS011;4465;50.904;4.696;2023-07-29T12:44:32;3.38;;;1.83;;
8857;SDS011;4465;50.904;4.696;2023-07-29T12:47:02;4.45;;;2.83;;
8857;SDS011;4465;50.904;4.696;2023-07-29T12:49:29;3.72;;;1.95;;
8857;SDS011;4465;50.904;4.696;2023-07-29T12:51:56;3.33;;;2.10;;
8857;SDS011;4465;50.904;4.696;2023-07-29T12:54:22;3.53;;;1.98;;
8857;SDS011;4465;50.904;4.696;2023-07-29T12:56:48;3.33;;;2.10;;
8857;SDS011;4465;50.904;4.696;2023-07-29T12:59:14;4.28;;;2.50;;
8857;SDS011;4465;50.904;4.696;2023-07-29T13:01:40;3.33;;;2.03;;
8857;SDS011;4465;50.904;4.696;2023-07-29T13:04:06;5.05;;;2.95;;
8857;SDS011;4465;50.904;4.696;2023-07-29T13:06:32;4.57;;;2.60;;
8857;SDS011;4465;50.904;4.696;2023-07-29T13:08:58;3.58;;;2.40;;
8857;SDS011;4465;50.904;4.696;2023-07-29T13:11:24;3.58;;;2.60;;
8857;SDS011;4465;50.904;4.696;2023-07-29T13:13:51;3.95;;;2.28;;
8857;SDS011;4465;50.904;4.696;2023-07-29T13:16:17;3.83;;;2.35;;
8857;SDS011;4465;50.904;4.696;2023-07-29T13:18:43;3.75;;;2.35;;
8857;SDS011;4465;50.904;4.696;2023-07-29T13:21:09;3.63;;;2.25;;
8857;SDS011;4465;50.904;4.696;2023-07-29T13:23:35;3.80;;;2.05;;
8857;SDS011;4465;50.904;4.696;2023-07-29T13:26:04;2.60;;;1.67;;
8857;SDS011;4465;50.904;4.696;2023-07-29T13:28:32;2.53;;;1.65;;
8857;SDS011;4465;50.904;4.696;2023-07-29T13:31:00;2.25;;;1.70;;
8857;SDS011;4465;50.904;4.696;2023-07-29T13:33:26;2.88;;;1.80;;
8857;SDS011;4465;50.904;4.696;2023-07-29T13:35:52;2.85;;;1.45;;
8857;SDS011;4465;50.904;4.696;2023-07-29T13:38:20;9.93;;;1.75;;
8857;SDS011;4465;50.904;4.696;2023-07-29T13:40:46;2.03;;;1.48;;
8857;SDS011;4465;50.904;4.696;2023-07-29T13:43:16;1.67;;;1.20;;
8857;SDS011;4465;50.904;4.696;2023-07-29T13:45:45;2.17;;;1.60;;
8857;SDS011;4465;50.904;4.696;2023-07-29T13:48:14;2.30;;;1.50;;
8857;SDS011;4465;50.904;4.696;2023-07-29T13:50:39;2.40;;;1.77;;
8857;SDS011;4465;50.904;4.696;2023-07-29T13:53:06;2.60;;;1.77;;
8857;SDS011;4465;50.904;4.696;2023-07-29T13:55:32;2.17;;;1.67;;
8857;SDS011;4465;50.904;4.696;2023-07-29T13:57:58;4.05;;;2.20;;
8857;SDS011;4465;50.904;4.696;2023-07-29T14:00:24;2.90;;;1.90;;
8857;SDS011;4465;50.904;4.696;2023-07-29T14:02:50;3.28;;;1.92;;
8857;SDS011;4465;50.904;4.696;2023-07-29T14:05:16;2.85;;;1.90;;
8857;SDS011;4465;50.904;4.696;2023-07-29T14:07:41;2.72;;;1.75;;
8857;SDS011;4465;50.904;4.696;2023-07-29T14:10:07;2.65;;;1.70;;
8857;SDS011;4465;50.904;4.696;2023-07-29T14:12:33;3.58;;;1.92;;
8857;SDS011;4465;50.904;4.696;2023-07-29T14:15:00;2.78;;;1.85;;
8857;SDS011;4465;50.904;4.696;2023-07-29T14:17:26;2.55;;;1.58;;
8857;SDS011;4465;50.904;4.696;2023-07-29T14:19:52;5.40;;;1.90;;
8857;SDS011;4465;50.904;4.696;2023-07-29T14:22:20;4.50;;;1.83;;
8857;SDS011;4465;50.904;4.696;2023-07-29T14:24:46;6.30;;;2.38;;
8857;SDS011;4465;50.904;4.696;2023-07-29T14:27:14;2.63;;;1.75;;
8857;SDS011;4465;50.904;4.696;2023-07-29T14:29:41;2.00;;;1.50;;
8857;SDS011;4465;50.904;4.696;2023-07-29T14:32:07;2.13;;;1.38;;
8857;SDS011;4465;50.904;4.696;2023-07-29T14:34:35;2.55;;;1.70;;
8857;SDS011;4465;50.904;4.696;2023-07-29T14:37:01;1.92;;;1.48;;
8857;SDS011;4465;50.904;4.696;2023-07-29T14:39:30;2.80;;;1.55;;
8857;SDS011;4465;50.904;4.696;2023-07-29T14:41:56;1.75;;;1.42;;
8857;SDS011;4465;50.904;4.696;2023-07-29T14:44:22;2.15;;;1.30;;
8857;SDS011;4465;50.904;4.696;2023-07-29T14:46:48;1.88;;;1.40;;
8857;SDS011;4465;50.904;4.696;2023-07-29T14:49:14;1.58;;;1.20;;
8857;SDS011;4465;50.904;4.696;2023-07-29T14:51:39;1.33;;;1.02;;
8857;SDS011;4465;50.904;4.696;2023-07-29T14:54:05;1.48;;;1.13;;
8857;SDS011;4465;50.904;4.696;2023-07-29T14:56:31;2.95;;;1.00;;
8857;SDS011;4465;50.904;4.696;2023-07-29T14:58:57;1.77;;;1.20;;
8857;SDS011;4465;50.904;4.696;2023-07-29T15:01:23;1.50;;;1.15;;
8857;SDS011;4465;50.904;4.696;2023-07-29T15:03:49;4.18;;;1.40;;
8857;SDS011;4465;50.904;4.696;2023-07-29T15:06:15;1.52;;;1.00;;
8857;SDS011;4465;50.904;4.696;2023-07-29T15:08:43;1.80;;;1.30;;
8857;SDS011;4465;50.904;4.696;2023-07-29T15:11:09;2.00;;;1.30;;
8857;SDS011;4465;50.904;4.696;2023-07-29T15:13:38;2.25;;;1.20;;
8857;SDS011;4465;50.904;4.696;2023-07-29T15:16:04;1.48;;;1.15;;
8857;SDS011;4465;50.904;4.696;2023-07-29T15:18:33;2.20;;;1.27;;
8857;SDS011;4465;50.904;4.696;2023-07-29T15:20:59;1.73;;;1.10;;
8857;SDS011;4465;50.904;4.696;2023-07-29T15:23:27;2.17;;;1.05;;
8857;SDS011;4465;50.904;4.696;2023-07-29T15:25:54;4.82;;;1.38;;
8857;SDS011;4465;50.904;4.696;2023-07-29T15:28:22;2.72;;;1.20;;
8857;SDS011;4465;50.904;4.696;2023-07-29T15:30:52;1.83;;;1.23;;
8857;SDS011;4465;50.904;4.696;2023-07-29T15:33:21;1.50;;;1.17;;
8857;SDS011;4465;50.904;4.696;2023-07-29T15:35:47;1.58;;;1.10;;
8857;SDS011;4465;50.904;4.696;2023-07-29T15:38:14;1.77;;;1.10;;
8857;SDS011;4465;50.904;4.696;2023-07-29T15:40:40;1.73;;;1.00;;
8857;SDS011;4465;50.904;4.696;2023-07-29T15:43:08;1.27;;;0.98;;
8857;SDS011;4465;50.904;4.696;2023-07-29T15:45:34;2.30;;;1.27;;
8857;SDS011;4465;50.904;4.696;2023-07-29T15:48:00;3.05;;;1.27;;
8857;SDS011;4465;50.904;4.696;2023-07-29T15:50:28;1.73;;;0.93;;
8857;SDS011;4465;50.904;4.696;2023-07-29T15:52:54;1.58;;;1.10;;
8857;SDS011;4465;50.904;4.696;2023-07-29T15:55:26;1.08;;;0.80;;
8857;SDS011;4465;50.904;4.696;2023-07-29T15:57:56;1.35;;;1.00;;